sensor_id;sensor_type;location;lat;lon;timestamp;P1;durP1;ratioP1;P2;durP2;ratioP2
74791;SDS011;63319;46.046;17.802;2023-02-08T00:01:48;18.50;;;11.32;;
74791;SDS011;63319;46.046;17.802;2023-02-08T00:04:50;20.08;;;12.25;;
74791;SDS011;63319;46.046;17.802;2023-02-08T00:07:53;17.07;;;11.43;;
74791;SDS011;63319;46.046;17.802;2023-02-08T00:10:56;17.15;;;11.48;;
74791;SDS011;63319;46.046;17.802;2023-02-08T00:14:02;18.95;;;12.15;;
74791;SDS011;63319;46.046;17.802;2023-02-08T00:17:05;17.45;;;11.15;;
74791;SDS011;63319;46.046;17.802;2023-02-08T00:20:08;17.67;;;11.68;;
74791;SDS011;63319;46.046;17.802;2023-02-08T00:23:12;16.97;;;11.33;;
74791;SDS011;63319;46.046;17.802;2023-02-08T00:26:16;16.77;;;11.30;;
74791;SDS011;63319;46.046;17.802;2023-02-08T00:29:19;17.38;;;11.55;;
74791;SDS011;63319;46.046;17.802;2023-02-08T00:32:22;17.58;;;11.55;;
74791;SDS011;63319;46.046;17.802;2023-02-08T00:35:25;17.85;;;12.02;;
74791;SDS011;63319;46.046;17.802;2023-02-08T00:38:32;17.43;;;11.27;;
74791;SDS011;63319;46.046;17.802;2023-02-08T00:41:41;18.58;;;12.43;;
74791;SDS011;63319;46.046;17.802;2023-02-08T00:44:44;17.20;;;11.77;;
74791;SDS011;63319;46.046;17.802;2023-02-08T00:47:47;17.45;;;11.27;;
74791;SDS011;63319;46.046;17.802;2023-02-08T00:51:06;17.25;;;11.30;;
74791;SDS011;63319;46.046;17.802;2023-02-08T00:54:20;17.30;;;10.80;;
74791;SDS011;63319;46.046;17.802;2023-02-08T00:57:24;16.08;;;10.90;;
74791;SDS011;63319;46.046;17.802;2023-02-08T01:00:28;17.95;;;11.68;;
74791;SDS011;63319;46.046;17.802;2023-02-08T01:03:33;15.98;;;11.00;;
74791;SDS011;63319;46.046;17.802;2023-02-08T01:06:37;16.65;;;10.85;;
74791;SDS011;63319;46.046;17.802;2023-02-08T01:09:40;17.40;;;10.43;;
74791;SDS011;63319;46.046;17.802;2023-02-08T01:12:43;17.10;;;11.25;;
74791;SDS011;63319;46.046;17.802;2023-02-08T01:15:46;17.38;;;11.60;;
74791;SDS011;63319;46.046;17.802;2023-02-08T01:18:50;16.77;;;11.38;;
74791;SDS011;63319;46.046;17.802;2023-02-08T01:21:54;17.95;;;12.10;;
74791;SDS011;63319;46.046;17.802;2023-02-08T01:24:59;15.97;;;11.07;;
74791;SDS011;63319;46.046;17.802;2023-02-08T01:28:03;18.48;;;11.70;;
74791;SDS011;63319;46.046;17.802;2023-02-08T01:31:07;16.00;;;10.15;;
74791;SDS011;63319;46.046;17.802;2023-02-08T01:34:15;15.38;;;10.55;;
74791;SDS011;63319;46.046;17.802;2023-02-08T01:37:18;18.05;;;11.43;;
74791;SDS011;63319;46.046;17.802;2023-02-08T01:40:21;16.73;;;11.30;;
74791;SDS011;63319;46.046;17.802;2023-02-08T01:43:28;16.45;;;11.05;;
74791;SDS011;63319;46.046;17.802;2023-02-08T01:46:36;18.02;;;11.48;;
74791;SDS011;63319;46.046;17.802;2023-02-08T01:49:41;16.75;;;10.95;;
74791;SDS011;63319;46.046;17.802;2023-02-08T01:52:44;18.23;;;11.63;;
74791;SDS011;63319;46.046;17.802;2023-02-08T01:55:49;16.90;;;10.87;;
74791;SDS011;63319;46.046;17.802;2023-02-08T01:58:57;16.77;;;10.65;;
74791;SDS011;63319;46.046;17.802;2023-02-08T02:02:03;16.58;;;10.77;;
74791;SDS011;63319;46.046;17.802;2023-02-08T02:05:11;16.98;;;10.98;;
74791;SDS011;63319;46.046;17.802;2023-02-08T02:08:15;16.40;;;10.80;;
74791;SDS011;63319;46.046;17.802;2023-02-08T02:11:18;17.27;;;11.17;;
74791;SDS011;63319;46.046;17.802;2023-02-08T02:14:22;14.63;;;10.27;;
74791;SDS011;63319;46.046;17.802;2023-02-08T02:17:25;16.23;;;10.35;;
74791;SDS011;63319;46.046;17.802;2023-02-08T02:24:03;14.65;;;9.88;;
74791;SDS011;63319;46.046;17.802;2023-02-08T02:44:21;16.70;;;10.67;;
74791;SDS011;63319;46.046;17.802;2023-02-08T02:47:54;16.55;;;10.63;;
74791;SDS011;63319;46.046;17.802;2023-02-08T02:51:13;16.33;;;11.00;;
74791;SDS011;63319;46.046;17.802;2023-02-08T02:54:26;15.82;;;10.43;;
74791;SDS011;63319;46.046;17.802;2023-02-08T02:57:33;17.05;;;11.80;;
74791;SDS011;63319;46.046;17.802;2023-02-08T03:00:37;15.90;;;9.80;;
74791;SDS011;63319;46.046;17.802;2023-02-08T03:03:41;16.13;;;10.80;;
74791;SDS011;63319;46.046;17.802;2023-02-08T03:16:50;16.93;;;10.63;;
74791;SDS011;63319;46.046;17.802;2023-02-08T03:20:35;16.75;;;10.50;;
74791;SDS011;63319;46.046;17.802;2023-02-08T03:23:46;14.88;;;10.43;;
74791;SDS011;63319;46.046;17.802;2023-02-08T03:27:05;18.48;;;10.77;;
74791;SDS011;63319;46.046;17.802;2023-02-08T03:30:30;17.15;;;10.93;;
74791;SDS011;63319;46.046;17.802;2023-02-08T03:33:39;17.73;;;10.00;;
74791;SDS011;63319;46.046;17.802;2023-02-08T03:36:52;16.67;;;11.25;;
74791;SDS011;63319;46.046;17.802;2023-02-08T03:40:06;15.70;;;10.68;;
74791;SDS011;63319;46.046;17.802;2023-02-08T03:43:27;16.13;;;10.85;;
74791;SDS011;63319;46.046;17.802;2023-02-08T03:46:36;15.77;;;10.45;;
74791;SDS011;63319;46.046;17.802;2023-02-08T03:49:47;15.70;;;10.67;;
74791;SDS011;63319;46.046;17.802;2023-02-08T03:52:54;17.23;;;10.23;;
74791;SDS011;63319;46.046;17.802;2023-02-08T03:55:59;17.67;;;11.00;;
74791;SDS011;63319;46.046;17.802;2023-02-08T03:59:10;15.07;;;10.65;;
74791;SDS011;63319;46.046;17.802;2023-02-08T04:02:19;15.30;;;10.52;;
74791;SDS011;63319;46.046;17.802;2023-02-08T04:05:23;14.97;;;9.83;;
74791;SDS011;63319;46.046;17.802;2023-02-08T04:08:26;16.88;;;10.98;;
74791;SDS011;63319;46.046;17.802;2023-02-08T04:11:29;16.45;;;10.57;;
74791;SDS011;63319;46.046;17.802;2023-02-08T04:14:32;15.65;;;10.00;;
74791;SDS011;63319;46.046;17.802;2023-02-08T04:17:35;17.08;;;11.13;;
74791;SDS011;63319;46.046;17.802;2023-02-08T04:20:38;16.63;;;10.13;;
74791;SDS011;63319;46.046;17.802;2023-02-08T04:23:41;16.83;;;10.00;;
74791;SDS011;63319;46.046;17.802;2023-02-08T04:26:44;16.75;;;10.88;;
74791;SDS011;63319;46.046;17.802;2023-02-08T04:29:47;16.25;;;10.48;;
74791;SDS011;63319;46.046;17.802;2023-02-08T04:32:50;16.25;;;10.65;;
74791;SDS011;63319;46.046;17.802;2023-02-08T04:35:53;15.70;;;10.40;;
74791;SDS011;63319;46.046;17.802;2023-02-08T04:38:55;14.23;;;9.65;;
74791;SDS011;63319;46.046;17.802;2023-02-08T04:41:58;15.55;;;10.63;;
74791;SDS011;63319;46.046;17.802;2023-02-08T04:45:04;17.33;;;10.35;;
74791;SDS011;63319;46.046;17.802;2023-02-08T04:48:07;17.17;;;10.63;;
74791;SDS011;63319;46.046;17.802;2023-02-08T04:51:15;18.50;;;10.70;;
74791;SDS011;63319;46.046;17.802;2023-02-08T04:54:18;16.25;;;10.75;;
74791;SDS011;63319;46.046;17.802;2023-02-08T04:57:21;17.00;;;11.15;;
74791;SDS011;63319;46.046;17.802;2023-02-08T05:00:24;14.73;;;9.68;;
74791;SDS011;63319;46.046;17.802;2023-02-08T05:03:28;15.52;;;10.57;;
74791;SDS011;63319;46.046;17.802;2023-02-08T05:06:31;15.63;;;9.33;;
74791;SDS011;63319;46.046;17.802;2023-02-08T05:09:34;17.35;;;10.45;;
74791;SDS011;63319;46.046;17.802;2023-02-08T05:12:37;15.52;;;10.70;;
74791;SDS011;63319;46.046;17.802;2023-02-08T05:15:40;14.65;;;10.20;;
74791;SDS011;63319;46.046;17.802;2023-02-08T05:18:43;16.67;;;10.60;;
74791;SDS011;63319;46.046;17.802;2023-02-08T05:21:46;14.67;;;9.93;;
74791;SDS011;63319;46.046;17.802;2023-02-08T05:24:49;14.57;;;10.10;;
74791;SDS011;63319;46.046;17.802;2023-02-08T05:27:52;15.15;;;10.07;;
74791;SDS011;63319;46.046;17.802;2023-02-08T05:30:55;14.60;;;9.38;;
74791;SDS011;63319;46.046;17.802;2023-02-08T05:33:58;16.13;;;10.15;;
74791;SDS011;63319;46.046;17.802;2023-02-08T05:37:01;14.53;;;9.83;;
74791;SDS011;63319;46.046;17.802;2023-02-08T05:40:03;15.90;;;10.00;;
74791;SDS011;63319;46.046;17.802;2023-02-08T05:43:07;14.00;;;9.27;;
74791;SDS011;63319;46.046;17.802;2023-02-08T05:46:10;15.38;;;9.63;;
74791;SDS011;63319;46.046;17.802;2023-02-08T05:49:13;16.08;;;10.60;;
74791;SDS011;63319;46.046;17.802;2023-02-08T05:52:16;14.77;;;9.53;;
74791;SDS011;63319;46.046;17.802;2023-02-08T05:55:19;16.00;;;10.88;;
74791;SDS011;63319;46.046;17.802;2023-02-08T05:58:22;15.40;;;10.35;;
74791;SDS011;63319;46.046;17.802;2023-02-08T06:01:28;14.38;;;9.60;;
74791;SDS011;63319;46.046;17.802;2023-02-08T06:04:31;17.35;;;11.05;;
74791;SDS011;63319;46.046;17.802;2023-02-08T06:07:34;14.83;;;10.20;;
74791;SDS011;63319;46.046;17.802;2023-02-08T06:10:38;14.85;;;9.93;;
74791;SDS011;63319;46.046;17.802;2023-02-08T06:13:42;16.58;;;10.52;;
74791;SDS011;63319;46.046;17.802;2023-02-08T06:16:47;17.15;;;10.25;;
74791;SDS011;63319;46.046;17.802;2023-02-08T06:19:49;14.93;;;9.55;;
74791;SDS011;63319;46.046;17.802;2023-02-08T06:22:53;15.63;;;9.57;;
74791;SDS011;63319;46.046;17.802;2023-02-08T06:25:57;14.65;;;9.82;;
74791;SDS011;63319;46.046;17.802;2023-02-08T06:29:00;14.65;;;9.90;;
74791;SDS011;63319;46.046;17.802;2023-02-08T06:32:03;13.88;;;9.20;;
74791;SDS011;63319;46.046;17.802;2023-02-08T06:35:06;13.73;;;9.52;;
74791;SDS011;63319;46.046;17.802;2023-02-08T06:38:10;17.37;;;10.10;;
74791;SDS011;63319;46.046;17.802;2023-02-08T06:41:13;15.73;;;9.73;;
74791;SDS011;63319;46.046;17.802;2023-02-08T06:44:16;14.40;;;10.02;;
74791;SDS011;63319;46.046;17.802;2023-02-08T06:47:19;14.98;;;9.45;;
74791;SDS011;63319;46.046;17.802;2023-02-08T06:50:23;16.08;;;10.27;;
74791;SDS011;63319;46.046;17.802;2023-02-08T06:53:26;15.23;;;9.73;;
74791;SDS011;63319;46.046;17.802;2023-02-08T06:56:29;13.85;;;9.10;;
74791;SDS011;63319;46.046;17.802;2023-02-08T06:59:32;16.33;;;10.52;;
74791;SDS011;63319;46.046;17.802;2023-02-08T07:02:36;13.80;;;10.00;;
74791;SDS011;63319;46.046;17.802;2023-02-08T07:05:39;14.48;;;9.80;;
74791;SDS011;63319;46.046;17.802;2023-02-08T07:08:51;15.47;;;10.13;;
74791;SDS011;63319;46.046;17.802;2023-02-08T07:12:00;15.00;;;9.75;;
74791;SDS011;63319;46.046;17.802;2023-02-08T07:15:07;15.55;;;10.10;;
74791;SDS011;63319;46.046;17.802;2023-02-08T07:18:12;14.82;;;9.43;;
74791;SDS011;63319;46.046;17.802;2023-02-08T07:21:15;14.90;;;10.20;;
74791;SDS011;63319;46.046;17.802;2023-02-08T07:24:19;16.13;;;10.27;;
74791;SDS011;63319;46.046;17.802;2023-02-08T07:27:21;14.80;;;9.80;;
74791;SDS011;63319;46.046;17.802;2023-02-08T07:30:30;17.63;;;10.63;;
74791;SDS011;63319;46.046;17.802;2023-02-08T07:33:33;15.70;;;9.88;;
74791;SDS011;63319;46.046;17.802;2023-02-08T07:36:35;15.57;;;10.90;;
74791;SDS011;63319;46.046;17.802;2023-02-08T07:39:38;15.57;;;10.00;;
74791;SDS011;63319;46.046;17.802;2023-02-08T07:42:41;15.85;;;10.23;;
74791;SDS011;63319;46.046;17.802;2023-02-08T07:46:11;14.43;;;10.32;;
74791;SDS011;63319;46.046;17.802;2023-02-08T07:49:22;15.75;;;9.88;;
74791;SDS011;63319;46.046;17.802;2023-02-08T07:52:25;15.27;;;10.27;;
74791;SDS011;63319;46.046;17.802;2023-02-08T07:55:28;17.00;;;10.57;;
74791;SDS011;63319;46.046;17.802;2023-02-08T07:58:31;15.73;;;10.85;;
74791;SDS011;63319;46.046;17.802;2023-02-08T08:01:34;14.60;;;10.85;;
74791;SDS011;63319;46.046;17.802;2023-02-08T08:04:40;18.45;;;11.30;;
74791;SDS011;63319;46.046;17.802;2023-02-08T08:07:44;15.17;;;9.83;;
74791;SDS011;63319;46.046;17.802;2023-02-08T08:10:47;18.17;;;10.87;;
74791;SDS011;63319;46.046;17.802;2023-02-08T08:13:50;16.50;;;11.02;;
74791;SDS011;63319;46.046;17.802;2023-02-08T08:16:53;15.95;;;10.20;;
74791;SDS011;63319;46.046;17.802;2023-02-08T08:19:56;15.70;;;9.90;;
74791;SDS011;63319;46.046;17.802;2023-02-08T08:23:00;16.27;;;10.13;;
74791;SDS011;63319;46.046;17.802;2023-02-08T08:26:11;17.33;;;10.40;;
74791;SDS011;63319;46.046;17.802;2023-02-08T08:29:15;16.55;;;11.23;;
74791;SDS011;63319;46.046;17.802;2023-02-08T08:32:18;17.10;;;10.35;;
74791;SDS011;63319;46.046;17.802;2023-02-08T08:35:21;15.70;;;10.07;;
74791;SDS011;63319;46.046;17.802;2023-02-08T08:38:27;16.13;;;10.43;;
74791;SDS011;63319;46.046;17.802;2023-02-08T08:41:36;17.00;;;10.70;;
74791;SDS011;63319;46.046;17.802;2023-02-08T08:44:39;18.42;;;11.32;;
74791;SDS011;63319;46.046;17.802;2023-02-08T08:48:03;19.48;;;11.10;;
74791;SDS011;63319;46.046;17.802;2023-02-08T08:51:06;16.30;;;9.98;;
74791;SDS011;63319;46.046;17.802;2023-02-08T08:54:09;15.50;;;10.40;;
74791;SDS011;63319;46.046;17.802;2023-02-08T08:57:12;16.48;;;10.25;;
74791;SDS011;63319;46.046;17.802;2023-02-08T09:00:16;17.65;;;11.45;;
74791;SDS011;63319;46.046;17.802;2023-02-08T09:03:21;17.38;;;11.18;;
74791;SDS011;63319;46.046;17.802;2023-02-08T09:06:23;16.35;;;11.05;;
74791;SDS011;63319;46.046;17.802;2023-02-08T09:09:26;21.83;;;11.07;;
74791;SDS011;63319;46.046;17.802;2023-02-08T09:12:30;19.90;;;10.57;;
74791;SDS011;63319;46.046;17.802;2023-02-08T09:15:33;18.90;;;10.45;;
74791;SDS011;63319;46.046;17.802;2023-02-08T09:18:36;17.60;;;10.65;;
74791;SDS011;63319;46.046;17.802;2023-02-08T09:21:42;16.10;;;10.05;;
74791;SDS011;63319;46.046;17.802;2023-02-08T09:24:46;16.17;;;10.77;;
74791;SDS011;63319;46.046;17.802;2023-02-08T09:27:49;17.23;;;10.93;;
74791;SDS011;63319;46.046;17.802;2023-02-08T09:30:53;15.45;;;9.65;;
74791;SDS011;63319;46.046;17.802;2023-02-08T09:33:57;16.63;;;11.45;;
74791;SDS011;63319;46.046;17.802;2023-02-08T09:37:01;15.70;;;10.43;;
74791;SDS011;63319;46.046;17.802;2023-02-08T09:40:05;15.93;;;10.47;;
74791;SDS011;63319;46.046;17.802;2023-02-08T09:43:12;16.48;;;10.85;;
74791;SDS011;63319;46.046;17.802;2023-02-08T09:46:23;17.60;;;10.60;;
74791;SDS011;63319;46.046;17.802;2023-02-08T09:49:43;16.60;;;10.73;;
74791;SDS011;63319;46.046;17.802;2023-02-08T09:52:57;17.83;;;10.68;;
74791;SDS011;63319;46.046;17.802;2023-02-08T09:56:15;16.13;;;10.20;;
74791;SDS011;63319;46.046;17.802;2023-02-08T09:59:24;15.48;;;10.73;;
74791;SDS011;63319;46.046;17.802;2023-02-08T10:02:49;14.63;;;9.68;;
74791;SDS011;63319;46.046;17.802;2023-02-08T10:05:55;15.20;;;10.43;;
74791;SDS011;63319;46.046;17.802;2023-02-08T10:08:59;13.60;;;9.38;;
74791;SDS011;63319;46.046;17.802;2023-02-08T10:19:03;15.20;;;10.52;;
74791;SDS011;63319;46.046;17.802;2023-02-08T10:32:42;17.30;;;9.32;;
74791;SDS011;63319;46.046;17.802;2023-02-08T10:36:02;14.95;;;10.15;;
74791;SDS011;63319;46.046;17.802;2023-02-08T10:39:17;15.85;;;9.73;;
74791;SDS011;63319;46.046;17.802;2023-02-08T10:42:29;14.68;;;9.50;;
74791;SDS011;63319;46.046;17.802;2023-02-08T10:45:37;14.90;;;9.07;;
74791;SDS011;63319;46.046;17.802;2023-02-08T10:52:17;21.70;;;9.00;;
74791;SDS011;63319;46.046;17.802;2023-02-08T10:55:20;16.55;;;9.52;;
74791;SDS011;63319;46.046;17.802;2023-02-08T10:58:26;15.93;;;8.93;;
74791;SDS011;63319;46.046;17.802;2023-02-08T11:01:29;13.90;;;9.53;;
74791;SDS011;63319;46.046;17.802;2023-02-08T11:04:32;16.70;;;8.65;;
74791;SDS011;63319;46.046;17.802;2023-02-08T11:07:37;15.30;;;9.85;;
74791;SDS011;63319;46.046;17.802;2023-02-08T11:10:45;16.40;;;9.45;;
74791;SDS011;63319;46.046;17.802;2023-02-08T11:14:08;16.10;;;9.57;;
74791;SDS011;63319;46.046;17.802;2023-02-08T11:17:27;15.37;;;9.40;;
74791;SDS011;63319;46.046;17.802;2023-02-08T11:20:38;14.43;;;8.82;;
74791;SDS011;63319;46.046;17.802;2023-02-08T11:23:42;15.60;;;9.95;;
74791;SDS011;63319;46.046;17.802;2023-02-08T11:26:53;15.55;;;9.00;;
74791;SDS011;63319;46.046;17.802;2023-02-08T11:33:17;12.80;;;8.87;;
74791;SDS011;63319;46.046;17.802;2023-02-08T11:36:21;12.95;;;8.35;;
74791;SDS011;63319;46.046;17.802;2023-02-08T11:42:55;14.00;;;8.52;;
74791;SDS011;63319;46.046;17.802;2023-02-08T11:46:00;13.43;;;8.68;;
74791;SDS011;63319;46.046;17.802;2023-02-08T11:49:12;15.77;;;9.50;;
74791;SDS011;63319;46.046;17.802;2023-02-08T11:55:29;13.32;;;8.75;;
74791;SDS011;63319;46.046;17.802;2023-02-08T11:58:34;16.20;;;10.27;;
74791;SDS011;63319;46.046;17.802;2023-02-08T12:01:39;15.30;;;9.63;;
74791;SDS011;63319;46.046;17.802;2023-02-08T12:04:50;13.70;;;9.20;;
74791;SDS011;63319;46.046;17.802;2023-02-08T12:14:44;17.48;;;8.77;;
74791;SDS011;63319;46.046;17.802;2023-02-08T12:18:02;15.45;;;9.10;;
74791;SDS011;63319;46.046;17.802;2023-02-08T12:21:17;16.27;;;9.20;;
74791;SDS011;63319;46.046;17.802;2023-02-08T12:28:13;20.38;;;9.90;;
74791;SDS011;63319;46.046;17.802;2023-02-08T12:34:55;22.42;;;10.75;;
74791;SDS011;63319;46.046;17.802;2023-02-08T12:38:48;16.53;;;9.50;;
74791;SDS011;63319;46.046;17.802;2023-02-08T12:49:15;24.60;;;9.75;;
74791;SDS011;63319;46.046;17.802;2023-02-08T12:55:41;19.53;;;10.20;;
74791;SDS011;63319;46.046;17.802;2023-02-08T12:58:56;24.50;;;10.75;;
74791;SDS011;63319;46.046;17.802;2023-02-08T13:02:21;23.58;;;11.07;;
74791;SDS011;63319;46.046;17.802;2023-02-08T13:05:36;25.10;;;14.63;;
74791;SDS011;63319;46.046;17.802;2023-02-08T13:09:02;25.13;;;14.73;;
74791;SDS011;63319;46.046;17.802;2023-02-08T13:12:25;18.40;;;12.00;;
74791;SDS011;63319;46.046;17.802;2023-02-08T13:15:36;24.50;;;12.18;;
74791;SDS011;63319;46.046;17.802;2023-02-08T13:22:34;22.15;;;13.05;;
74791;SDS011;63319;46.046;17.802;2023-02-08T13:25:41;22.23;;;12.00;;
74791;SDS011;63319;46.046;17.802;2023-02-08T13:28:49;22.93;;;12.43;;
74791;SDS011;63319;46.046;17.802;2023-02-08T13:31:57;24.95;;;12.25;;
74791;SDS011;63319;46.046;17.802;2023-02-08T13:38:33;25.50;;;13.93;;
74791;SDS011;63319;46.046;17.802;2023-02-08T13:41:38;25.83;;;13.33;;
74791;SDS011;63319;46.046;17.802;2023-02-08T13:45:03;26.97;;;14.47;;
74791;SDS011;63319;46.046;17.802;2023-02-08T13:48:08;25.17;;;15.13;;
74791;SDS011;63319;46.046;17.802;2023-02-08T13:54:36;20.35;;;10.63;;
74791;SDS011;63319;46.046;17.802;2023-02-08T13:57:52;20.37;;;10.50;;
74791;SDS011;63319;46.046;17.802;2023-02-08T14:11:13;20.50;;;11.07;;
74791;SDS011;63319;46.046;17.802;2023-02-08T14:14:18;16.97;;;10.20;;
74791;SDS011;63319;46.046;17.802;2023-02-08T14:17:26;17.50;;;9.70;;
74791;SDS011;63319;46.046;17.802;2023-02-08T14:20:38;17.20;;;9.80;;
74791;SDS011;63319;46.046;17.802;2023-02-08T14:23:42;17.17;;;10.02;;
74791;SDS011;63319;46.046;17.802;2023-02-08T14:26:46;17.35;;;10.02;;
74791;SDS011;63319;46.046;17.802;2023-02-08T14:36:24;18.42;;;10.25;;
74791;SDS011;63319;46.046;17.802;2023-02-08T14:39:34;15.98;;;9.77;;
74791;SDS011;63319;46.046;17.802;2023-02-08T14:43:00;16.77;;;9.77;;
74791;SDS011;63319;46.046;17.802;2023-02-08T14:49:41;16.98;;;10.15;;
74791;SDS011;63319;46.046;17.802;2023-02-08T14:56:19;18.20;;;9.88;;
74791;SDS011;63319;46.046;17.802;2023-02-08T14:59:26;16.50;;;9.77;;
74791;SDS011;63319;46.046;17.802;2023-02-08T15:02:32;15.47;;;9.83;;
74791;SDS011;63319;46.046;17.802;2023-02-08T15:05:40;16.48;;;9.60;;
74791;SDS011;63319;46.046;17.802;2023-02-08T15:08:55;16.92;;;10.20;;
74791;SDS011;63319;46.046;17.802;2023-02-08T15:12:06;17.58;;;10.15;;
74791;SDS011;63319;46.046;17.802;2023-02-08T15:15:27;15.75;;;10.77;;
74791;SDS011;63319;46.046;17.802;2023-02-08T15:18:32;15.80;;;9.30;;
74791;SDS011;63319;46.046;17.802;2023-02-08T15:21:35;15.05;;;8.43;;
74791;SDS011;63319;46.046;17.802;2023-02-08T15:24:49;16.00;;;9.35;;
74791;SDS011;63319;46.046;17.802;2023-02-08T15:28:17;16.88;;;9.70;;
74791;SDS011;63319;46.046;17.802;2023-02-08T15:31:25;15.80;;;9.13;;
74791;SDS011;63319;46.046;17.802;2023-02-08T15:34:32;15.43;;;8.67;;
74791;SDS011;63319;46.046;17.802;2023-02-08T15:37:35;14.07;;;9.70;;
74791;SDS011;63319;46.046;17.802;2023-02-08T15:40:38;15.15;;;9.55;;
74791;SDS011;63319;46.046;17.802;2023-02-08T15:43:42;17.48;;;10.02;;
74791;SDS011;63319;46.046;17.802;2023-02-08T15:46:45;17.70;;;10.15;;
74791;SDS011;63319;46.046;17.802;2023-02-08T15:49:49;14.87;;;8.93;;
74791;SDS011;63319;46.046;17.802;2023-02-08T15:52:59;16.40;;;9.35;;
74791;SDS011;63319;46.046;17.802;2023-02-08T15:56:04;13.82;;;8.70;;
74791;SDS011;63319;46.046;17.802;2023-02-08T15:59:12;15.73;;;9.02;;
74791;SDS011;63319;46.046;17.802;2023-02-08T16:02:29;16.08;;;9.93;;
74791;SDS011;63319;46.046;17.802;2023-02-08T16:05:34;15.13;;;9.70;;
74791;SDS011;63319;46.046;17.802;2023-02-08T16:08:40;15.20;;;9.18;;
74791;SDS011;63319;46.046;17.802;2023-02-08T16:11:46;17.90;;;10.23;;
74791;SDS011;63319;46.046;17.802;2023-02-08T16:14:51;17.52;;;9.57;;
74791;SDS011;63319;46.046;17.802;2023-02-08T16:17:58;15.23;;;9.38;;
74791;SDS011;63319;46.046;17.802;2023-02-08T16:24:26;15.52;;;9.30;;
74791;SDS011;63319;46.046;17.802;2023-02-08T16:27:29;15.05;;;9.70;;
74791;SDS011;63319;46.046;17.802;2023-02-08T16:30:33;16.95;;;10.52;;
74791;SDS011;63319;46.046;17.802;2023-02-08T16:33:36;15.77;;;10.20;;
74791;SDS011;63319;46.046;17.802;2023-02-08T16:36:42;14.90;;;9.90;;
74791;SDS011;63319;46.046;17.802;2023-02-08T16:43:14;16.58;;;10.43;;
74791;SDS011;63319;46.046;17.802;2023-02-08T16:46:27;15.88;;;10.27;;
74791;SDS011;63319;46.046;17.802;2023-02-08T16:49:32;19.17;;;11.77;;
74791;SDS011;63319;46.046;17.802;2023-02-08T16:52:36;15.37;;;10.70;;
74791;SDS011;63319;46.046;17.802;2023-02-08T16:55:40;16.20;;;10.57;;
74791;SDS011;63319;46.046;17.802;2023-02-08T16:58:48;18.33;;;10.70;;
74791;SDS011;63319;46.046;17.802;2023-02-08T17:01:52;18.10;;;10.70;;
74791;SDS011;63319;46.046;17.802;2023-02-08T17:04:58;18.08;;;10.48;;
74791;SDS011;63319;46.046;17.802;2023-02-08T17:08:03;16.20;;;10.57;;
74791;SDS011;63319;46.046;17.802;2023-02-08T17:11:12;17.23;;;11.00;;
74791;SDS011;63319;46.046;17.802;2023-02-08T17:14:16;18.95;;;11.48;;
74791;SDS011;63319;46.046;17.802;2023-02-08T17:17:19;15.57;;;10.45;;
74791;SDS011;63319;46.046;17.802;2023-02-08T17:20:26;18.13;;;10.88;;
74791;SDS011;63319;46.046;17.802;2023-02-08T17:23:32;17.27;;;10.70;;
74791;SDS011;63319;46.046;17.802;2023-02-08T17:26:38;18.20;;;11.63;;
74791;SDS011;63319;46.046;17.802;2023-02-08T17:29:44;17.95;;;10.40;;
74791;SDS011;63319;46.046;17.802;2023-02-08T17:32:48;16.80;;;10.88;;
74791;SDS011;63319;46.046;17.802;2023-02-08T17:35:52;18.33;;;11.50;;
74791;SDS011;63319;46.046;17.802;2023-02-08T17:38:58;17.77;;;11.20;;
74791;SDS011;63319;46.046;17.802;2023-02-08T17:42:02;17.17;;;11.13;;
74791;SDS011;63319;46.046;17.802;2023-02-08T17:45:07;17.33;;;11.30;;
74791;SDS011;63319;46.046;17.802;2023-02-08T17:48:12;16.40;;;10.68;;
74791;SDS011;63319;46.046;17.802;2023-02-08T17:51:18;17.48;;;10.77;;
74791;SDS011;63319;46.046;17.802;2023-02-08T17:54:25;16.93;;;10.23;;
74791;SDS011;63319;46.046;17.802;2023-02-08T17:57:30;15.85;;;10.30;;
74791;SDS011;63319;46.046;17.802;2023-02-08T18:00:35;17.85;;;11.15;;
74791;SDS011;63319;46.046;17.802;2023-02-08T18:03:39;18.65;;;11.15;;
74791;SDS011;63319;46.046;17.802;2023-02-08T18:06:43;16.40;;;10.85;;
74791;SDS011;63319;46.046;17.802;2023-02-08T18:09:47;17.77;;;11.77;;
74791;SDS011;63319;46.046;17.802;2023-02-08T18:12:53;17.88;;;10.90;;
74791;SDS011;63319;46.046;17.802;2023-02-08T18:15:57;17.30;;;11.27;;
74791;SDS011;63319;46.046;17.802;2023-02-08T18:19:01;16.17;;;10.88;;
74791;SDS011;63319;46.046;17.802;2023-02-08T18:22:06;15.25;;;10.85;;
74791;SDS011;63319;46.046;17.802;2023-02-08T18:25:14;16.80;;;10.90;;
74791;SDS011;63319;46.046;17.802;2023-02-08T18:28:19;16.67;;;11.02;;
74791;SDS011;63319;46.046;17.802;2023-02-08T18:31:23;17.48;;;10.85;;
74791;SDS011;63319;46.046;17.802;2023-02-08T18:34:28;16.02;;;10.35;;
74791;SDS011;63319;46.046;17.802;2023-02-08T18:37:33;17.60;;;11.20;;
74791;SDS011;63319;46.046;17.802;2023-02-08T18:40:43;15.43;;;9.97;;
74791;SDS011;63319;46.046;17.802;2023-02-08T18:43:50;16.38;;;10.82;;
74791;SDS011;63319;46.046;17.802;2023-02-08T18:46:56;16.90;;;10.75;;
74791;SDS011;63319;46.046;17.802;2023-02-08T18:50:03;17.83;;;10.25;;
74791;SDS011;63319;46.046;17.802;2023-02-08T18:53:09;15.57;;;9.88;;
74791;SDS011;63319;46.046;17.802;2023-02-08T18:56:13;16.53;;;10.67;;
74791;SDS011;63319;46.046;17.802;2023-02-08T18:59:17;18.08;;;10.93;;
74791;SDS011;63319;46.046;17.802;2023-02-08T19:02:22;16.00;;;10.80;;
74791;SDS011;63319;46.046;17.802;2023-02-08T19:05:29;16.27;;;10.57;;
74791;SDS011;63319;46.046;17.802;2023-02-08T19:08:39;16.33;;;10.57;;
74791;SDS011;63319;46.046;17.802;2023-02-08T19:11:43;15.67;;;10.07;;
74791;SDS011;63319;46.046;17.802;2023-02-08T19:14:48;15.75;;;9.98;;
74791;SDS011;63319;46.046;17.802;2023-02-08T19:17:53;15.93;;;10.80;;
74791;SDS011;63319;46.046;17.802;2023-02-08T19:21:05;16.33;;;10.55;;
74791;SDS011;63319;46.046;17.802;2023-02-08T19:24:12;15.98;;;10.15;;
74791;SDS011;63319;46.046;17.802;2023-02-08T19:27:18;14.50;;;9.50;;
74791;SDS011;63319;46.046;17.802;2023-02-08T19:30:23;14.18;;;9.63;;
74791;SDS011;63319;46.046;17.802;2023-02-08T19:33:29;14.93;;;9.73;;
74791;SDS011;63319;46.046;17.802;2023-02-08T19:36:38;15.73;;;9.70;;
74791;SDS011;63319;46.046;17.802;2023-02-08T19:39:45;17.38;;;11.70;;
74791;SDS011;63319;46.046;17.802;2023-02-08T19:42:50;16.77;;;11.37;;
74791;SDS011;63319;46.046;17.802;2023-02-08T19:45:57;16.88;;;10.68;;
74791;SDS011;63319;46.046;17.802;2023-02-08T19:49:02;19.48;;;12.35;;
74791;SDS011;63319;46.046;17.802;2023-02-08T19:52:06;17.48;;;11.10;;
74791;SDS011;63319;46.046;17.802;2023-02-08T19:55:11;18.70;;;12.10;;
74791;SDS011;63319;46.046;17.802;2023-02-08T19:58:17;18.27;;;11.87;;
74791;SDS011;63319;46.046;17.802;2023-02-08T20:01:23;18.27;;;12.15;;
74791;SDS011;63319;46.046;17.802;2023-02-08T20:04:28;16.60;;;10.73;;
74791;SDS011;63319;46.046;17.802;2023-02-08T20:07:33;17.10;;;11.20;;
74791;SDS011;63319;46.046;17.802;2023-02-08T20:10:42;19.92;;;12.38;;